Aviation Digital Data Service (ADDS)

Output produced by METARs form (1036 UTC 25 June 2017)
found at http://aviationweather.gov/adds/metars/
 
KAOO 251012Z 2510/2606 23004KT P6SM SCT060 
     FM251200 26008KT P6SM SCT060 
     FM251400 27013G22KT P6SM SCT060